Time,TemperatureF,DewpointF,PressureIn,WindDirection,WindDirectionDegrees,WindSpeedMPH,WindSpeedGustMPH,Humidity,HourlyPrecipIn,Conditions,Clouds,dailyrainin,SoftwareType,DateUTC
2015-01-28 00:02:00,50.7,44.4,-100.00,WSW,257,0.0,2.0,79,0.00,,,0.04,meteohub,2015-01-28 08:02:00,
2015-01-28 00:07:00,50.7,44.4,-100.00,WSW,257,0.0,2.0,79,0.00,,,0.00,meteohub,2015-01-28 08:07:00,
2015-01-28 00:12:00,50.7,44.4,-100.00,WSW,257,0.0,2.0,79,0.00,,,0.00,meteohub,2015-01-28 08:12:00,
2015-01-28 00:17:00,50.5,44.2,-100.00,WSW,248,2.0,2.0,79,0.00,,,0.00,meteohub,2015-01-28 08:17:00,
2015-01-28 00:22:00,50.4,44.1,-100.00,SSW,210,2.0,2.0,79,0.00,,,0.00,meteohub,2015-01-28 08:22:00,
2015-01-28 00:27:00,50.4,44.4,-100.00,SSW,205,1.0,3.0,80,0.00,,,0.00,meteohub,2015-01-28 08:27:00,
2015-01-28 00:32:00,50.4,44.8,-100.00,SSW,205,0.0,3.0,81,0.00,,,0.00,meteohub,2015-01-28 08:32:00,
2015-01-28 00:37:00,50.4,44.8,-100.00,SSW,205,0.0,3.0,81,0.00,,,0.00,meteohub,2015-01-28 08:37:00,
2015-01-28 00:42:00,50.4,44.4,-100.00,SSW,205,0.0,3.0,80,0.00,,,0.00,meteohub,2015-01-28 08:42:00,
2015-01-28 00:47:00,50.2,44.2,-100.00,SSW,205,0.0,2.0,80,0.00,,,0.00,meteohub,2015-01-28 08:47:00,
2015-01-28 00:52:00,50.2,44.2,-100.00,SSW,205,0.0,1.0,80,0.00,,,0.00,meteohub,2015-01-28 08:52:00,
2015-01-28 00:57:00,50.0,44.1,-100.00,SSW,205,1.0,1.0,80,0.00,,,0.00,meteohub,2015-01-28 08:57:00,
2015-01-28 01:02:00,49.6,44.1,-100.00,SSW,205,1.0,2.0,81,0.00,,,0.00,meteohub,2015-01-28 09:02:00,
2015-01-28 01:07:00,49.6,44.1,-100.00,SSW,205,0.0,2.0,81,0.00,,,0.00,meteohub,2015-01-28 09:07:00,
2015-01-28 01:12:00,49.5,43.9,-100.00,SSW,205,1.0,2.0,81,0.00,,,0.00,meteohub,2015-01-28 09:12:00,
2015-01-28 01:17:00,48.7,43.2,-100.00,WSW,257,3.0,4.0,81,0.00,,,0.00,meteohub,2015-01-28 09:17:00,
2015-01-28 01:22:00,48.9,44.1,-100.00,WSW,258,3.0,4.0,83,0.00,,,0.00,meteohub,2015-01-28 09:22:00,
2015-01-28 01:27:00,49.1,43.9,-100.00,WSW,258,1.0,4.0,82,0.00,,,0.00,meteohub,2015-01-28 09:27:00,
2015-01-28 01:32:00,49.1,43.9,-100.00,WSW,258,1.0,4.0,82,0.00,,,0.00,meteohub,2015-01-28 09:32:00,
2015-01-28 01:37:00,49.1,43.9,-100.00,WSW,258,0.0,4.0,82,0.00,,,0.00,meteohub,2015-01-28 09:37:00,
2015-01-28 01:42:00,49.3,43.7,-100.00,WSW,258,0.0,2.0,81,0.00,,,0.00,meteohub,2015-01-28 09:42:00,
2015-01-28 01:47:00,49.1,43.5,-100.00,WSW,258,1.0,2.0,81,0.00,,,0.00,meteohub,2015-01-28 09:47:00,
2015-01-28 01:52:00,48.9,43.3,-100.00,WSW,258,0.0,1.0,81,0.00,,,0.00,meteohub,2015-01-28 09:52:00,
2015-01-28 01:57:00,48.9,43.3,-100.00,WSW,258,1.0,1.0,81,0.00,,,0.00,meteohub,2015-01-28 09:57:00,
2015-01-28 02:02:00,48.9,43.7,-100.00,WSW,258,0.0,1.0,82,0.00,,,0.00,meteohub,2015-01-28 10:02:00,
2015-01-28 02:07:00,48.9,43.7,-100.00,WSW,258,0.0,1.0,82,0.00,,,0.00,meteohub,2015-01-28 10:07:00,
2015-01-28 02:12:00,48.9,43.3,-100.00,WSW,258,0.0,1.0,81,0.00,,,0.00,meteohub,2015-01-28 10:12:00,